Vasiliy Bozhenko — URHP — position and weather

sailwx.info

Track history (hours):
 
Tides and Currents Weather Stations Pressure Air Temp Water Temp Dewpoint Dewpoint Depression Visibility Wind Speed Wind Dir Waves Ship Positions

Vasiliy Bozhenko

Last reported at 2017-Oct-15 19:17 UTC. Time now 2017-Oct-18 15:21 UTC.
Position N 40°58' E 028°56'.

Length 114 m; draft 3.8 m.

Type: Cargo ship. MMSI: 272085000.

Date/timePositionNaut miles runAvg speedWind from/ knotsBaromVisibWave heightAir tempDewpointWater temp
2017-Oct-15 19:17N 40°58' E 028°56'3 5.7
2017-Oct-15 18:50N 40°59' E 028°59'161 5.4
2017-Oct-14 12:53N 43°40' E 029°01'3 7.0
2017-Oct-14 12:30N 43°42' E 029°03'3 6.7
2017-Oct-14 12:00N 43°45' E 029°05'3 6.6
2017-Oct-14 11:30N 43°48' E 029°08'3 6.7
2017-Oct-14 11:00N 43°50' E 029°11'3 6.9
2017-Oct-14 10:30N 43°53' E 029°13'3 6.8
2017-Oct-14 10:00N 43°56' E 029°16'3 6.6
2017-Oct-14 09:30N 43°59' E 029°19'159 6.7
2017-Oct-13 09:42N 46°22' E 030°55'1 6.9
2017-Oct-13 09:29N 46°24' E 030°55'4 6.9
2017-Oct-13 08:59N 46°27' E 030°55'15 5.5
2017-Oct-13 06:15N 46°35' E 031°14'2 6.7
2017-Oct-13 05:59N 46°35' E 031°17'3 6.7
2017-Oct-13 05:30N 46°35' E 031°22'5 6.8
2017-Oct-13 04:44N 46°36' E 031°29'2 6.9
2017-Oct-13 04:30N 46°35' E 031°31'3 6.6
2017-Oct-13 04:00N 46°35' E 031°36'4 7.1
2017-Oct-13 03:30N 46°36' E 031°41'4 7.2
2017-Oct-13 03:00N 46°36' E 031°46'3 6.8
2017-Oct-13 02:30N 46°35' E 031°51'3 6.8
2017-Oct-13 02:00N 46°34' E 031°56'3 6.7
2017-Oct-13 01:30N 46°33' E 032°00'3 6.7
2017-Oct-13 01:00N 46°32' E 032°05'3 6.7
2017-Oct-13 00:30N 46°32' E 032°10'3 6.7
2017-Oct-13 00:00N 46°33' E 032°15'4 6.7
2017-Oct-12 23:22N 46°33' E 032°21'2 6.7
2017-Oct-12 23:00N 46°33' E 032°24'  
2017-Oct-10 11:13N 47°34' E 035°01'3 6.2
2017-Oct-10 10:40N 47°37' E 035°03'2 6.6
2017-Oct-10 10:24N 47°38' E 035°05'3 6.5
2017-Oct-10 09:56N 47°41' E 035°08'3 6.3
2017-Oct-10 09:30N 47°43' E 035°09'3 6.1
2017-Oct-10 09:00N 47°46' E 035°09'3 5.5
2017-Oct-10 08:30N 47°49' E 035°08'3 6.0
2017-Oct-10 08:00N 47°51' E 035°05'1 1.6
2017-Oct-10 07:30N 47°52' E 035°05'0 0.0
2017-Oct-10 07:00N 47°52' E 035°05'1 1.2
2017-Oct-10 06:30N 47°52' E 035°06'0 0.4
2017-Oct-10 06:01N 47°52' E 035°06'0 0.0
2017-Oct-10 05:31N 47°52' E 035°06'0 0.0
2017-Oct-10 05:00N 47°52' E 035°06'0 0.0
2017-Oct-10 04:31N 47°52' E 035°06'0 0.0
2017-Oct-10 04:01N 47°52' E 035°06'0 0.0
2017-Oct-10 03:31N 47°52' E 035°06'0 0.0
2017-Oct-10 03:01N 47°52' E 035°06'0 0.0
2017-Oct-10 02:26N 47°52' E 035°06'0 0.0
2017-Oct-10 01:56N 47°52' E 035°06'0 0.0
2017-Oct-10 01:25N 47°52' E 035°06'0 0.0
2017-Oct-10 00:56N 47°52' E 035°06'0 0.0
2017-Oct-10 00:26N 47°52' E 035°06'0 0.0
2017-Oct-09 23:56N 47°52' E 035°06'0 0.0
2017-Oct-09 23:20N 47°52' E 035°06'0 0.0
2017-Oct-09 22:57N 47°52' E 035°06'0 0.0
2017-Oct-09 22:27N 47°52' E 035°06'0 0.0
2017-Oct-09 21:58N 47°52' E 035°06'0 0.0
2017-Oct-09 21:28N 47°52' E 035°06'0 0.0
2017-Oct-09 20:58N 47°52' E 035°06'0 0.0
2017-Oct-09 20:30N 47°52' E 035°06'1 1.2
2017-Oct-09 20:00N 47°53' E 035°06'3 6.6
2017-Oct-09 19:30N 47°56' E 035°07'3 6.8
2017-Oct-09 18:59N 47°60' E 035°08'3 6.4
2017-Oct-09 18:30N 48°03' E 035°07'  
Track history (hours):
 
Tides and Currents Weather Stations Pressure Air Temp Water Temp Dewpoint Dewpoint Depression Visibility Wind Speed Wind Dir Waves Ship Positions

Vasiliy Bozhenko

Last reported at 2017-Oct-15 19:17 UTC. Time now 2017-Oct-18 15:21 UTC.
Position N 40°58' E 028°56'.

Length 114 m; draft 3.8 m.

Type: Cargo ship. MMSI: 272085000.

Date/timePositionNaut miles runAvg speedWind from/ knotsBaromVisibWave heightAir tempDewpointWater temp
2017-Oct-15 19:17N 40°58' E 028°56'3 5.7
2017-Oct-15 18:50N 40°59' E 028°59'161 5.4
2017-Oct-14 12:53N 43°40' E 029°01'3 7.0
2017-Oct-14 12:30N 43°42' E 029°03'3 6.7
2017-Oct-14 12:00N 43°45' E 029°05'3 6.6
2017-Oct-14 11:30N 43°48' E 029°08'3 6.7
2017-Oct-14 11:00N 43°50' E 029°11'3 6.9
2017-Oct-14 10:30N 43°53' E 029°13'3 6.8
2017-Oct-14 10:00N 43°56' E 029°16'3 6.6
2017-Oct-14 09:30N 43°59' E 029°19'159 6.7
2017-Oct-13 09:42N 46°22' E 030°55'1 6.9
2017-Oct-13 09:29N 46°24' E 030°55'4 6.9
2017-Oct-13 08:59N 46°27' E 030°55'15 5.5
2017-Oct-13 06:15N 46°35' E 031°14'2 6.7
2017-Oct-13 05:59N 46°35' E 031°17'3 6.7
2017-Oct-13 05:30N 46°35' E 031°22'5 6.8
2017-Oct-13 04:44N 46°36' E 031°29'2 6.9
2017-Oct-13 04:30N 46°35' E 031°31'3 6.6
2017-Oct-13 04:00N 46°35' E 031°36'4 7.1
2017-Oct-13 03:30N 46°36' E 031°41'4 7.2
2017-Oct-13 03:00N 46°36' E 031°46'3 6.8
2017-Oct-13 02:30N 46°35' E 031°51'3 6.8
2017-Oct-13 02:00N 46°34' E 031°56'3 6.7
2017-Oct-13 01:30N 46°33' E 032°00'3 6.7
2017-Oct-13 01:00N 46°32' E 032°05'3 6.7
2017-Oct-13 00:30N 46°32' E 032°10'3 6.7
2017-Oct-13 00:00N 46°33' E 032°15'4 6.7
2017-Oct-12 23:22N 46°33' E 032°21'2 6.7
2017-Oct-12 23:00N 46°33' E 032°24'  
2017-Oct-10 11:13N 47°34' E 035°01'3 6.2
2017-Oct-10 10:40N 47°37' E 035°03'2 6.6
2017-Oct-10 10:24N 47°38' E 035°05'3 6.5
2017-Oct-10 09:56N 47°41' E 035°08'3 6.3
2017-Oct-10 09:30N 47°43' E 035°09'3 6.1
2017-Oct-10 09:00N 47°46' E 035°09'3 5.5
2017-Oct-10 08:30N 47°49' E 035°08'3 6.0
2017-Oct-10 08:00N 47°51' E 035°05'1 1.6
2017-Oct-10 07:30N 47°52' E 035°05'0 0.0
2017-Oct-10 07:00N 47°52' E 035°05'1 1.2
2017-Oct-10 06:30N 47°52' E 035°06'0 0.4
2017-Oct-10 06:01N 47°52' E 035°06'0 0.0
2017-Oct-10 05:31N 47°52' E 035°06'0 0.0
2017-Oct-10 05:00N 47°52' E 035°06'0 0.0
2017-Oct-10 04:31N 47°52' E 035°06'0 0.0
2017-Oct-10 04:01N 47°52' E 035°06'0 0.0
2017-Oct-10 03:31N 47°52' E 035°06'0 0.0
2017-Oct-10 03:01N 47°52' E 035°06'0 0.0
2017-Oct-10 02:26N 47°52' E 035°06'0 0.0
2017-Oct-10 01:56N 47°52' E 035°06'0 0.0
2017-Oct-10 01:25N 47°52' E 035°06'0 0.0
2017-Oct-10 00:56N 47°52' E 035°06'0 0.0
2017-Oct-10 00:26N 47°52' E 035°06'0 0.0
2017-Oct-09 23:56N 47°52' E 035°06'0 0.0
2017-Oct-09 23:20N 47°52' E 035°06'0 0.0
2017-Oct-09 22:57N 47°52' E 035°06'0 0.0
2017-Oct-09 22:27N 47°52' E 035°06'0 0.0
2017-Oct-09 21:58N 47°52' E 035°06'0 0.0
2017-Oct-09 21:28N 47°52' E 035°06'0 0.0
2017-Oct-09 20:58N 47°52' E 035°06'0 0.0
2017-Oct-09 20:30N 47°52' E 035°06'1 1.2
2017-Oct-09 20:00N 47°53' E 035°06'3 6.6
2017-Oct-09 19:30N 47°56' E 035°07'3 6.8
2017-Oct-09 18:59N 47°60' E 035°08'3 6.4
2017-Oct-09 18:30N 48°03' E 035°07'  

Dump ship's entire track history